KLM313 LTFM-LROP
Flight info
| Callsign | KLM313 |
|---|---|
| Flight time | 0h 43m |
| Altitude | 36000 |
| Route | IBLAX1D/35L IBLAX P727 BGS L622 GONGO DCT KOMAN DCT OBUGA |
| Aircraft | B738/M-SDE2E3FGHIRWXY/LB1 |
Departure
| Time | 2026-05-04 19:00 |
|---|---|
| Airport | İstanbul Airport (LTFM) |
Arrival
| Time | 2026-05-04 19:43 |
|---|---|
| Airport | Bucharest Henri Coandă International Airport (LROP) |
| Time | Latitude | Longitude | Altitude | Speed | Heading |
|---|---|---|---|---|---|
| 2026-05-04 18:33 | 41.26764 | 28.73532 | 175 ft | 0 kts | 180° |
| 2026-05-04 18:49 | 41.26766 | 28.73532 | 175 ft | 2 kts | 180° |
| 2026-05-04 18:49 | 41.26783 | 28.73533 | 175 ft | 3 kts | 187° |
| 2026-05-04 18:50 | 41.26803 | 28.73538 | 175 ft | 3 kts | 197° |
| 2026-05-04 18:50 | 41.26821 | 28.73546 | 175 ft | 2 kts | 202° |
| 2026-05-04 18:50 | 41.26824 | 28.73547 | 175 ft | 1 kts | 203° |
| 2026-05-04 18:52 | 41.26821 | 28.73538 | 175 ft | 2 kts | 255° |
| 2026-05-04 18:52 | 41.26821 | 28.73534 | 175 ft | 0 kts | 266° |
| 2026-05-04 18:54 | 41.26824 | 28.73513 | 175 ft | 7 kts | 286° |
| 2026-05-04 18:54 | 41.26848 | 28.73443 | 175 ft | 9 kts | 296° |
| 2026-05-04 18:54 | 41.26851 | 28.73365 | 175 ft | 9 kts | 262° |
| 2026-05-04 18:54 | 41.26852 | 28.73287 | 175 ft | 8 kts | 273° |
| 2026-05-04 18:55 | 41.26854 | 28.73211 | 175 ft | 8 kts | 271° |
| 2026-05-04 18:55 | 41.26852 | 28.73044 | 175 ft | 10 kts | 256° |
| 2026-05-04 18:55 | 41.26801 | 28.72994 | 175 ft | 10 kts | 186° |
| 2026-05-04 18:56 | 41.26725 | 28.72995 | 175 ft | 12 kts | 179° |
| 2026-05-04 18:56 | 41.26647 | 28.72996 | 175 ft | 7 kts | 180° |
| 2026-05-04 18:56 | 41.26604 | 28.72975 | 175 ft | 7 kts | 224° |
| 2026-05-04 18:56 | 41.26584 | 28.72872 | 176 ft | 16 kts | 269° |
| 2026-05-04 18:57 | 41.26583 | 28.72704 | 177 ft | 17 kts | 269° |
| 2026-05-04 18:57 | 41.26580 | 28.72560 | 177 ft | 11 kts | 270° |
| 2026-05-04 18:57 | 41.26615 | 28.72517 | 177 ft | 0 kts | 355° |
| 2026-05-04 18:59 | 41.26715 | 28.72512 | 177 ft | 51 kts | 359° |
| 2026-05-04 19:00 | 41.27374 | 28.72499 | 172 ft | 135 kts | 358° |
| 2026-05-04 19:00 | 41.28094 | 28.72477 | 275 ft | 174 kts | 357° |
| 2026-05-04 19:00 | 41.29399 | 28.72481 | 996 ft | 199 kts | 359° |
| 2026-05-04 19:00 | 41.30887 | 28.72479 | 1463 ft | 231 kts | 1° |
| 2026-05-04 19:01 | 41.32618 | 28.72489 | 1795 ft | 267 kts | 1° |
| 2026-05-04 19:01 | 41.34488 | 28.72504 | 2938 ft | 261 kts | 1° |
| 2026-05-04 19:01 | 41.36781 | 28.72527 | 5074 ft | 233 kts | 0° |
| 2026-05-04 19:01 | 41.37837 | 28.72502 | 5951 ft | 229 kts | 354° |
| 2026-05-04 19:02 | 41.39363 | 28.71829 | 6858 ft | 235 kts | 338° |
| 2026-05-04 19:02 | 41.40861 | 28.70871 | 7639 ft | 242 kts | 338° |
| 2026-05-04 19:02 | 41.42395 | 28.69884 | 8468 ft | 247 kts | 339° |
| 2026-05-04 19:02 | 41.43959 | 28.68887 | 9306 ft | 252 kts | 339° |
| 2026-05-04 19:03 | 41.45552 | 28.67870 | 10136 ft | 256 kts | 340° |
| 2026-05-04 19:03 | 41.47191 | 28.66823 | 10794 ft | 266 kts | 340° |
| 2026-05-04 19:03 | 41.48882 | 28.65741 | 11538 ft | 271 kts | 340° |
| 2026-05-04 19:03 | 41.50591 | 28.64642 | 12331 ft | 275 kts | 340° |
| 2026-05-04 19:04 | 41.52331 | 28.63526 | 13118 ft | 280 kts | 340° |
| 2026-05-04 19:04 | 41.54111 | 28.62387 | 13887 ft | 285 kts | 339° |
| 2026-05-04 19:04 | 41.55908 | 28.61230 | 14590 ft | 289 kts | 340° |
| 2026-05-04 19:04 | 41.57678 | 28.59922 | 15308 ft | 298 kts | 328° |
| 2026-05-04 19:05 | 41.59149 | 28.57950 | 16007 ft | 307 kts | 319° |
| 2026-05-04 19:05 | 41.60582 | 28.55801 | 16687 ft | 312 kts | 319° |
| 2026-05-04 19:05 | 41.62039 | 28.53619 | 17375 ft | 317 kts | 319° |
| 2026-05-04 19:05 | 41.63522 | 28.51420 | 18062 ft | 321 kts | 319° |
| 2026-05-04 19:06 | 41.65034 | 28.49194 | 18695 ft | 325 kts | 320° |
| 2026-05-04 19:06 | 41.66570 | 28.46970 | 19329 ft | 324 kts | 323° |
| 2026-05-04 19:06 | 41.68386 | 28.45304 | 19955 ft | 314 kts | 341° |
| 2026-05-04 19:06 | 41.70390 | 28.44151 | 20604 ft | 314 kts | 343° |
| 2026-05-04 19:07 | 41.72420 | 28.43043 | 21228 ft | 317 kts | 343° |
| 2026-05-04 19:07 | 41.74475 | 28.41927 | 21839 ft | 320 kts | 343° |
| 2026-05-04 19:07 | 41.76551 | 28.40792 | 22366 ft | 325 kts | 342° |
| 2026-05-04 19:07 | 41.78655 | 28.39634 | 22945 ft | 328 kts | 342° |
| 2026-05-04 19:08 | 41.80777 | 28.38454 | 23563 ft | 331 kts | 342° |
| 2026-05-04 19:08 | 41.82906 | 28.37261 | 24074 ft | 333 kts | 342° |
| 2026-05-04 19:08 | 41.85055 | 28.36054 | 24541 ft | 337 kts | 342° |
| 2026-05-04 19:08 | 41.87227 | 28.34836 | 25012 ft | 340 kts | 342° |
| 2026-05-04 19:09 | 41.89417 | 28.33607 | 25478 ft | 343 kts | 342° |
| 2026-05-04 19:09 | 41.91625 | 28.32365 | 25938 ft | 346 kts | 341° |
| 2026-05-04 19:09 | 41.93852 | 28.31111 | 26402 ft | 349 kts | 341° |
| 2026-05-04 19:09 | 41.96095 | 28.29843 | 26881 ft | 351 kts | 341° |
| 2026-05-04 19:10 | 41.98259 | 28.28249 | 27313 ft | 358 kts | 332° |
| 2026-05-04 19:10 | 42.00329 | 28.26344 | 27753 ft | 363 kts | 329° |
| 2026-05-04 19:10 | 42.02350 | 28.24362 | 28176 ft | 366 kts | 328° |
| 2026-05-04 19:10 | 42.04403 | 28.22303 | 28602 ft | 369 kts | 328° |
| 2026-05-04 19:11 | 42.06463 | 28.20224 | 29022 ft | 372 kts | 328° |
| 2026-05-04 19:11 | 42.08539 | 28.18128 | 29439 ft | 374 kts | 328° |
| 2026-05-04 19:11 | 42.10635 | 28.16013 | 29843 ft | 377 kts | 328° |
| 2026-05-04 19:11 | 42.12747 | 28.13889 | 30220 ft | 380 kts | 328° |
| 2026-05-04 19:12 | 42.14874 | 28.11756 | 30531 ft | 382 kts | 328° |
| 2026-05-04 19:12 | 42.19186 | 28.07447 | 31038 ft | 390 kts | 327° |
| 2026-05-04 19:13 | 42.23634 | 28.03006 | 31079 ft | 406 kts | 327° |
| 2026-05-04 19:13 | 42.28234 | 27.98401 | 31172 ft | 422 kts | 327° |
| 2026-05-04 19:13 | 42.30587 | 27.96036 | 31622 ft | 417 kts | 327° |
| 2026-05-04 19:14 | 42.32871 | 27.93734 | 32523 ft | 404 kts | 327° |
| 2026-05-04 19:14 | 42.35102 | 27.91484 | 33133 ft | 399 kts | 327° |
| 2026-05-04 19:14 | 42.37337 | 27.89240 | 33346 ft | 402 kts | 327° |
| 2026-05-04 19:14 | 42.39599 | 27.86974 | 33517 ft | 407 kts | 327° |
| 2026-05-04 19:15 | 42.41876 | 27.84686 | 33783 ft | 408 kts | 327° |
| 2026-05-04 19:15 | 42.44160 | 27.82387 | 34088 ft | 409 kts | 327° |
| 2026-05-04 19:15 | 42.46447 | 27.80078 | 34334 ft | 411 kts | 327° |
| 2026-05-04 19:15 | 42.48745 | 27.77757 | 34515 ft | 414 kts | 327° |
| 2026-05-04 19:16 | 42.51055 | 27.75420 | 34713 ft | 415 kts | 327° |
| 2026-05-04 19:16 | 42.53371 | 27.73070 | 34951 ft | 416 kts | 326° |
| 2026-05-04 19:16 | 42.55694 | 27.70709 | 35169 ft | 417 kts | 326° |
| 2026-05-04 19:16 | 42.58022 | 27.68342 | 35381 ft | 419 kts | 326° |
| 2026-05-04 19:17 | 42.60357 | 27.65969 | 35585 ft | 420 kts | 326° |
| 2026-05-04 19:17 | 42.62700 | 27.63587 | 35788 ft | 421 kts | 326° |
| 2026-05-04 19:17 | 42.65049 | 27.61197 | 35986 ft | 422 kts | 325° |
| 2026-05-04 19:18 | 42.69783 | 27.56379 | 36076 ft | 430 kts | 326° |
| 2026-05-04 19:18 | 42.74586 | 27.51488 | 36073 ft | 438 kts | 325° |
| 2026-05-04 19:19 | 42.79508 | 27.46448 | 36080 ft | 446 kts | 325° |
| 2026-05-04 19:19 | 42.84474 | 27.41360 | 36068 ft | 448 kts | 325° |
| 2026-05-04 19:20 | 42.89464 | 27.36236 | 36058 ft | 449 kts | 325° |
| 2026-05-04 19:20 | 42.94446 | 27.31107 | 36040 ft | 448 kts | 324° |
| 2026-05-04 19:21 | 42.99421 | 27.25975 | 36045 ft | 447 kts | 324° |
| 2026-05-04 19:21 | 43.04353 | 27.20878 | 36047 ft | 446 kts | 324° |
| 2026-05-04 19:22 | 43.09295 | 27.15759 | 36048 ft | 445 kts | 324° |
| 2026-05-04 19:22 | 43.14230 | 27.10638 | 36045 ft | 444 kts | 324° |
| 2026-05-04 19:23 | 43.19149 | 27.05522 | 36053 ft | 444 kts | 324° |
| 2026-05-04 19:23 | 43.24035 | 27.00427 | 35896 ft | 435 kts | 324° |
| 2026-05-04 19:23 | 43.26429 | 26.97928 | 35282 ft | 433 kts | 324° |
| 2026-05-04 19:24 | 43.28836 | 26.95414 | 34547 ft | 436 kts | 324° |
| 2026-05-04 19:24 | 43.31260 | 26.92880 | 33745 ft | 440 kts | 324° |
| 2026-05-04 19:24 | 43.33702 | 26.90325 | 32816 ft | 444 kts | 323° |
| 2026-05-04 19:24 | 43.36174 | 26.87734 | 31877 ft | 449 kts | 323° |
| 2026-05-04 19:25 | 43.38666 | 26.85119 | 31058 ft | 451 kts | 323° |
| 2026-05-04 19:25 | 43.41163 | 26.82497 | 30322 ft | 450 kts | 323° |
| 2026-05-04 19:25 | 43.43644 | 26.79886 | 29509 ft | 448 kts | 323° |
| 2026-05-04 19:25 | 43.46088 | 26.77313 | 28695 ft | 451 kts | 323° |
| 2026-05-04 19:26 | 43.48581 | 26.74687 | 27901 ft | 451 kts | 323° |
| 2026-05-04 19:26 | 43.51060 | 26.72071 | 27114 ft | 446 kts | 323° |
| 2026-05-04 19:26 | 43.53495 | 26.69499 | 26336 ft | 436 kts | 323° |
| 2026-05-04 19:26 | 43.55879 | 26.66977 | 25593 ft | 426 kts | 324° |
| 2026-05-04 19:27 | 43.58207 | 26.64513 | 24863 ft | 418 kts | 324° |
| 2026-05-04 19:27 | 43.60508 | 26.62075 | 24169 ft | 418 kts | 324° |
| 2026-05-04 19:27 | 43.62815 | 26.59632 | 23454 ft | 418 kts | 324° |
| 2026-05-04 19:27 | 43.65119 | 26.57187 | 22655 ft | 417 kts | 324° |
| 2026-05-04 19:28 | 43.67415 | 26.54749 | 21872 ft | 417 kts | 324° |
| 2026-05-04 19:28 | 43.69709 | 26.52310 | 21103 ft | 416 kts | 324° |
| 2026-05-04 19:28 | 43.71999 | 26.49873 | 20355 ft | 415 kts | 324° |
| 2026-05-04 19:28 | 43.74282 | 26.47440 | 19620 ft | 414 kts | 325° |
| 2026-05-04 19:29 | 43.76556 | 26.45015 | 18903 ft | 413 kts | 325° |
| 2026-05-04 19:29 | 43.78827 | 26.42590 | 18171 ft | 412 kts | 325° |
| 2026-05-04 19:29 | 43.81090 | 26.40171 | 17381 ft | 410 kts | 325° |
| 2026-05-04 19:29 | 43.83339 | 26.37764 | 16634 ft | 408 kts | 326° |
| 2026-05-04 19:30 | 43.85550 | 26.35395 | 16344 ft | 394 kts | 326° |
| 2026-05-04 19:30 | 43.87672 | 26.33116 | 16201 ft | 378 kts | 326° |
| 2026-05-04 19:30 | 43.89726 | 26.30910 | 15870 ft | 370 kts | 326° |
| 2026-05-04 19:30 | 43.91754 | 26.28736 | 15498 ft | 367 kts | 326° |
| 2026-05-04 19:31 | 43.93763 | 26.26581 | 15104 ft | 364 kts | 327° |
| 2026-05-04 19:31 | 43.95772 | 26.24424 | 14568 ft | 365 kts | 327° |
| 2026-05-04 19:31 | 43.97769 | 26.22274 | 14046 ft | 362 kts | 327° |
| 2026-05-04 19:31 | 43.99773 | 26.20174 | 13484 ft | 359 kts | 329° |
| 2026-05-04 19:32 | 44.01810 | 26.18193 | 12902 ft | 356 kts | 330° |
| 2026-05-04 19:32 | 44.03844 | 26.16253 | 12347 ft | 353 kts | 330° |
| 2026-05-04 19:32 | 44.05840 | 26.14334 | 12127 ft | 342 kts | 329° |
| 2026-05-04 19:32 | 44.07720 | 26.12506 | 12042 ft | 327 kts | 329° |
| 2026-05-04 19:33 | 44.09554 | 26.10713 | 12037 ft | 321 kts | 329° |
| 2026-05-04 19:33 | 44.11390 | 26.08918 | 11767 ft | 326 kts | 329° |
| 2026-05-04 19:33 | 44.13252 | 26.07109 | 11347 ft | 326 kts | 332° |
| 2026-05-04 19:33 | 44.15251 | 26.05666 | 10824 ft | 323 kts | 341° |
| 2026-05-04 19:34 | 44.17332 | 26.04469 | 10219 ft | 325 kts | 342° |
| 2026-05-04 19:34 | 44.19438 | 26.03296 | 9593 ft | 327 kts | 342° |
| 2026-05-04 19:34 | 44.21553 | 26.02111 | 8939 ft | 327 kts | 341° |
| 2026-05-04 19:34 | 44.23631 | 26.00927 | 8292 ft | 318 kts | 341° |
| 2026-05-04 19:35 | 44.25655 | 25.99759 | 7655 ft | 311 kts | 340° |
| 2026-05-04 19:35 | 44.27637 | 25.98605 | 7036 ft | 306 kts | 340° |
| 2026-05-04 19:35 | 44.29584 | 25.97467 | 6424 ft | 301 kts | 340° |
| 2026-05-04 19:35 | 44.31495 | 25.96347 | 5798 ft | 296 kts | 339° |
| 2026-05-04 19:36 | 44.33383 | 25.95238 | 5169 ft | 293 kts | 338° |
| 2026-05-04 19:36 | 44.35259 | 25.94136 | 4541 ft | 291 kts | 338° |
| 2026-05-04 19:36 | 44.37091 | 25.93056 | 3923 ft | 289 kts | 338° |
| 2026-05-04 19:36 | 44.38939 | 25.91967 | 3305 ft | 287 kts | 338° |
| 2026-05-04 19:37 | 44.40774 | 25.90884 | 2770 ft | 283 kts | 337° |
| 2026-05-04 19:37 | 44.42539 | 25.89841 | 2591 ft | 267 kts | 337° |
| 2026-05-04 19:37 | 44.44196 | 25.88862 | 2503 ft | 249 kts | 337° |
| 2026-05-04 19:37 | 44.45724 | 25.87958 | 2506 ft | 227 kts | 337° |
| 2026-05-04 19:38 | 44.47109 | 25.87138 | 2492 ft | 207 kts | 337° |
| 2026-05-04 19:38 | 44.48416 | 25.86365 | 2503 ft | 199 kts | 337° |
| 2026-05-04 19:38 | 44.49637 | 25.85642 | 2477 ft | 181 kts | 337° |
| 2026-05-04 19:38 | 44.50732 | 25.84990 | 2475 ft | 161 kts | 336° |
| 2026-05-04 19:39 | 44.51750 | 25.84506 | 2470 ft | 153 kts | 358° |
| 2026-05-04 19:39 | 44.52702 | 25.85173 | 2567 ft | 175 kts | 52° |
| 2026-05-04 19:39 | 44.53347 | 25.86640 | 2499 ft | 172 kts | 47° |
| 2026-05-04 19:39 | 44.53951 | 25.88018 | 2486 ft | 161 kts | 66° |
| 2026-05-04 19:40 | 44.54354 | 25.89474 | 2486 ft | 159 kts | 65° |
| 2026-05-04 19:40 | 44.54748 | 25.90907 | 2494 ft | 158 kts | 66° |
| 2026-05-04 19:40 | 44.55141 | 25.92349 | 2504 ft | 158 kts | 66° |
| 2026-05-04 19:40 | 44.55413 | 25.93832 | 2506 ft | 160 kts | 78° |
| 2026-05-04 19:41 | 44.55559 | 25.95374 | 2448 ft | 159 kts | 81° |
| 2026-05-04 19:41 | 44.55676 | 25.96928 | 2018 ft | 162 kts | 83° |
| 2026-05-04 19:41 | 44.55771 | 25.98489 | 1639 ft | 157 kts | 84° |
| 2026-05-04 19:41 | 44.55896 | 25.99984 | 1294 ft | 152 kts | 82° |
| 2026-05-04 19:42 | 44.56015 | 26.01411 | 1096 ft | 145 kts | 84° |
| 2026-05-04 19:42 | 44.56104 | 26.02819 | 990 ft | 144 kts | 85° |
| 2026-05-04 19:42 | 44.56189 | 26.04237 | 880 ft | 148 kts | 84° |
| 2026-05-04 19:42 | 44.56302 | 26.05664 | 676 ft | 147 kts | 82° |
| 2026-05-04 19:43 | 44.56419 | 26.07076 | 431 ft | 144 kts | 82° |
| 2026-05-04 19:43 | 44.56524 | 26.08433 | 315 ft | 132 kts | 83° |
| 2026-05-04 19:43 | 44.56611 | 26.09526 | 313 ft | 92 kts | 83° |
| 2026-05-04 19:43 | 44.56652 | 26.10032 | 317 ft | 43 kts | 84° |
| 2026-05-04 19:44 | 44.56684 | 26.10411 | 317 ft | 24 kts | 82° |
| 2026-05-04 19:44 | 44.56698 | 26.10635 | 316 ft | 23 kts | 85° |
| 2026-05-04 19:44 | 44.56769 | 26.10752 | 317 ft | 12 kts | 1° |
| 2026-05-04 19:44 | 44.56801 | 26.10750 | 316 ft | 4 kts | 355° |
| 2026-05-04 19:45 | 44.56847 | 26.10743 | 317 ft | 12 kts | 355° |
| 2026-05-04 19:45 | 44.56937 | 26.10732 | 317 ft | 13 kts | 350° |
| 2026-05-04 19:45 | 44.57016 | 26.10676 | 316 ft | 13 kts | 306° |
| 2026-05-04 19:45 | 44.57058 | 26.10568 | 316 ft | 13 kts | 292° |
| 2026-05-04 19:46 | 44.57061 | 26.10441 | 316 ft | 14 kts | 265° |
| 2026-05-04 19:46 | 44.57049 | 26.10302 | 314 ft | 14 kts | 261° |
| 2026-05-04 19:46 | 44.57037 | 26.10168 | 316 ft | 14 kts | 266° |
| 2026-05-04 19:46 | 44.57028 | 26.10020 | 315 ft | 17 kts | 264° |
| 2026-05-04 19:47 | 44.57014 | 26.09823 | 315 ft | 23 kts | 264° |
| 2026-05-04 19:47 | 44.56996 | 26.09586 | 315 ft | 23 kts | 263° |
| 2026-05-04 19:47 | 44.56979 | 26.09361 | 314 ft | 23 kts | 264° |
| 2026-05-04 19:47 | 44.56964 | 26.09143 | 314 ft | 22 kts | 263° |
| 2026-05-04 19:48 | 44.56945 | 26.08932 | 314 ft | 22 kts | 263° |
| 2026-05-04 19:48 | 44.56931 | 26.08726 | 314 ft | 21 kts | 263° |
| 2026-05-04 19:48 | 44.56913 | 26.08580 | 312 ft | 11 kts | 249° |
| 2026-05-04 19:48 | 44.56896 | 26.08463 | 313 ft | 14 kts | 279° |
| 2026-05-04 19:49 | 44.56953 | 26.08340 | 312 ft | 16 kts | 290° |
| 2026-05-04 19:49 | 44.56990 | 26.08269 | 314 ft | 8 kts | 287° |
| 2026-05-04 19:49 | 44.56993 | 26.08201 | 312 ft | 8 kts | 327° |
| 2026-05-04 19:49 | 44.57032 | 26.08197 | 314 ft | 0 kts | 353° |
| 2026-05-04 19:50 | 44.57033 | 26.08197 | 314 ft | 0 kts | 354° |
| 2026-05-04 19:50 | 44.57034 | 26.08197 | 314 ft | 0 kts | 354° |